Casey Creek, Kentucky
Current Conditions -  °F | °C
As of 1:56 PM on Friday 31 Oct 2014 (Local Time) from KEKQ Reporting Station
Overcast Overcast  
Wind Chill: 46°   Ceiling: 3900
Heat Index: 48°   Visibility: 7mi
Dew Point: 45°   Wind: 5mph
Humidity: 90%   Direction: 290°WNW
Pressure: 29.95"   Gusts: NA
Location:  37.112°N, 85.2724°W
Report Text: KEKQ 311856Z AUTO 29004KT 7SM FEW009 OVC039 09/07 A2995 RMK AO2 T00880072 SLP149
Loading
Personal Weather Stations






























Interactive Weather Map
Tropical Storm Tracking
New forecast layout! Learn more

10-Day Weather Forecast

Advertisements
Track Severe Weather on mobile